Buoy 41609

sailwx.info

Track history (hours):
 
Tides and Currents Weather Stations Pressure Air Temp Water Temp Dewpoint Dewpoint Depression Visibility Wind Speed Wind Dir Waves Ship Positions

Drifting buoy 41609

Last reported at 2015-Jul-04 16:00 UTC. Time now 2015-Jul-04 17:03 UTC.
Position N 46°56' W 041°01'.

Date/timePositionNaut miles runAvg speedWind from/ knotsBaromVisibWave heightAir tempDewpointWater temp
2015-Jul-04 16:00N 46°56' W 041°01'2 0.5
2015-Jul-04 12:00N 46°54' W 041°01'0 0.0
2015-Jul-04 11:00N 46°54' W 041°01'3 1.4
2015-Jul-04 09:00N 46°52' W 040°59'0 0.4
2015-Jul-04 08:00N 46°52' W 040°59'8 0.9
2015-Jul-03 23:00N 46°45' W 040°52'1 1.3
2015-Jul-03 22:00N 46°44' W 040°51'1 0.4
2015-Jul-03 20:00N 46°44' W 040°50'1 1.1
2015-Jul-03 19:00N 46°43' W 040°49'2 1.7
2015-Jul-03 18:00N 46°42' W 040°47'0 0.0
2015-Jul-03 16:00N 46°42' W 040°47'1 0.9
2015-Jul-03 15:00N 46°42' W 040°45'1 0.3
2015-Jul-03 13:00N 46°41' W 040°45'1 0.5
2015-Jul-03 11:00N 46°41' W 040°44'1 0.6
2015-Jul-03 09:00N 46°40' W 040°42'0 0.0
2015-Jul-03 08:00N 46°40' W 040°42'1 0.3
2015-Jul-03 06:00N 46°40' W 040°42'1 1.2
2015-Jul-03 05:00N 46°40' W 040°40'3 0.6
2015-Jul-03 00:00N 46°40' W 040°35'0 0.1
2015-Jul-02 23:00N 46°40' W 040°35'1 1.2
2015-Jul-02 22:00N 46°41' W 040°34'1 0.5
2015-Jul-02 20:00N 46°41' W 040°32'2 1.8
2015-Jul-02 19:00N 46°40' W 040°30'1 0.2
2015-Jul-02 15:00N 46°39' W 040°29'7 0.7
2015-Jul-02 05:00N 46°41' W 040°18'12 0.8
2015-Jul-01 14:00N 46°44' W 040°01'2 1.8
2015-Jul-01 13:00N 46°43' W 039°59'0 0.1
2015-Jul-01 10:00N 46°43' W 039°59'0 0.5
2015-Jul-01 09:00N 46°43' W 039°58'1 1.4
2015-Jul-01 08:00N 46°43' W 039°56'1 1.0
2015-Jul-01 07:00N 46°43' W 039°55'5 0.7
2015-Jul-01 00:00N 46°42' W 039°48'4 0.6
2015-Jun-30 17:00N 46°43' W 039°42'1 0.5
2015-Jun-30 16:00N 46°43' W 039°41'5 0.6
2015-Jun-30 08:00N 46°43' W 039°34'5 0.4
2015-Jun-29 20:00N 46°45' W 039°27'2 0.8
2015-Jun-29 18:00N 46°46' W 039°25'0 0.0
2015-Jun-29 17:00N 46°46' W 039°25'4 0.8
2015-Jun-29 12:00N 46°49' W 039°22'0 0.0
2015-Jun-29 11:00N 46°49' W 039°22'1 1.3
2015-Jun-29 10:00N 46°50' W 039°20'0 0.4
2015-Jun-29 09:00N 46°50' W 039°21'3 1.0
2015-Jun-29 06:00N 46°53' W 039°18'1 0.6
2015-Jun-29 04:00N 46°53' W 039°17'0 0.0
2015-Jun-29 03:00N 46°53' W 039°17'6 1.4
2015-Jun-28 23:00N 46°57' W 039°11'2 0.7
2015-Jun-28 20:00N 46°59' W 039°09'6 3.2
2015-Jun-28 18:00N 47°04' W 039°03'9 0.7
2015-Jun-28 06:00N 47°09' W 038°53'2 1.6
2015-Jun-28 05:00N 47°11' W 038°52'0 0.0
2015-Jun-28 04:00N 47°11' W 038°52'8 1.1
2015-Jun-27 21:00N 47°18' W 038°48'1 0.9
2015-Jun-27 20:00N 47°19' W 038°47'6 1.0
2015-Jun-27 14:00N 47°24' W 038°43'2 1.0
2015-Jun-27 12:00N 47°26' W 038°43'7 1.2
2015-Jun-27 06:00N 47°34' W 038°42'2 2.3
2015-Jun-27 05:00N 47°36' W 038°42'20 1.5
2015-Jun-26 16:00N 47°55' W 038°43'3 0.9
2015-Jun-26 12:00N 47°58' W 038°46'2 0.8
2015-Jun-26 09:00N 48°01' W 038°46'1 1.4
2015-Jun-26 08:00N 48°02' W 038°46'2 1.8
2015-Jun-26 07:00N 48°04' W 038°46'2 2.5
2015-Jun-26 06:00N 48°06' W 038°48'5 2.7
2015-Jun-26 04:00N 48°11' W 038°52'3 0.5
2015-Jun-25 23:00N 48°13' W 038°54'1 1.0
2015-Jun-25 22:00N 48°14' W 038°55'3 3.1
2015-Jun-25 21:00N 48°15' W 038°59'2 1.7
2015-Jun-25 20:00N 48°17' W 039°00'0 0.5
2015-Jun-25 19:00N 48°17' W 039°01'0 0.0
2015-Jun-25 18:00N 48°17' W 039°01'4 3.8
2015-Jun-25 17:00N 48°20' W 039°05'0 0.0
2015-Jun-25 16:00N 48°20' W 039°05'3 1.4
2015-Jun-25 14:00N 48°22' W 039°08'4 4.3
2015-Jun-25 13:00N 48°24' W 039°14'0 0.2
2015-Jun-25 12:00N 48°24' W 039°14'4 1.4
2015-Jun-25 09:00N 48°25' W 039°20'2 1.0
2015-Jun-25 07:00N 48°26' W 039°23'2 1.5
2015-Jun-25 06:00N 48°27' W 039°25'2 1.9
2015-Jun-25 05:00N 48°27' W 039°28'6 6.3
2015-Jun-25 04:00N 48°28' W 039°37'6 6.3
2015-Jun-25 03:00N 48°27' W 039°28'6 3.2
2015-Jun-25 01:00N 48°28' W 039°37'0 0.0
2015-Jun-25 00:00N 48°28' W 039°37'1 0.7
2015-Jun-24 23:00N 48°28' W 039°36'1 0.6
2015-Jun-24 22:00N 48°29' W 039°37'3 1.5
2015-Jun-24 20:00N 48°29' W 039°41'1 0.6
2015-Jun-24 19:00N 48°29' W 039°42'2 1.7
2015-Jun-24 18:00N 48°28' W 039°45'  
Track history (hours):
 
Tides and Currents Weather Stations Pressure Air Temp Water Temp Dewpoint Dewpoint Depression Visibility Wind Speed Wind Dir Waves Ship Positions

Drifting buoy 41609

Last reported at 2015-Jul-04 16:00 UTC. Time now 2015-Jul-04 17:03 UTC.
Position N 46°56' W 041°01'.

Date/timePositionNaut miles runAvg speedWind from/ knotsBaromVisibWave heightAir tempDewpointWater temp
2015-Jul-04 16:00N 46°56' W 041°01'2 0.5
2015-Jul-04 12:00N 46°54' W 041°01'0 0.0
2015-Jul-04 11:00N 46°54' W 041°01'3 1.4
2015-Jul-04 09:00N 46°52' W 040°59'0 0.4
2015-Jul-04 08:00N 46°52' W 040°59'8 0.9
2015-Jul-03 23:00N 46°45' W 040°52'1 1.3
2015-Jul-03 22:00N 46°44' W 040°51'1 0.4
2015-Jul-03 20:00N 46°44' W 040°50'1 1.1
2015-Jul-03 19:00N 46°43' W 040°49'2 1.7
2015-Jul-03 18:00N 46°42' W 040°47'0 0.0
2015-Jul-03 16:00N 46°42' W 040°47'1 0.9
2015-Jul-03 15:00N 46°42' W 040°45'1 0.3
2015-Jul-03 13:00N 46°41' W 040°45'1 0.5
2015-Jul-03 11:00N 46°41' W 040°44'1 0.6
2015-Jul-03 09:00N 46°40' W 040°42'0 0.0
2015-Jul-03 08:00N 46°40' W 040°42'1 0.3
2015-Jul-03 06:00N 46°40' W 040°42'1 1.2
2015-Jul-03 05:00N 46°40' W 040°40'3 0.6
2015-Jul-03 00:00N 46°40' W 040°35'0 0.1
2015-Jul-02 23:00N 46°40' W 040°35'1 1.2
2015-Jul-02 22:00N 46°41' W 040°34'1 0.5
2015-Jul-02 20:00N 46°41' W 040°32'2 1.8
2015-Jul-02 19:00N 46°40' W 040°30'1 0.2
2015-Jul-02 15:00N 46°39' W 040°29'7 0.7
2015-Jul-02 05:00N 46°41' W 040°18'12 0.8
2015-Jul-01 14:00N 46°44' W 040°01'2 1.8
2015-Jul-01 13:00N 46°43' W 039°59'0 0.1
2015-Jul-01 10:00N 46°43' W 039°59'0 0.5
2015-Jul-01 09:00N 46°43' W 039°58'1 1.4
2015-Jul-01 08:00N 46°43' W 039°56'1 1.0
2015-Jul-01 07:00N 46°43' W 039°55'5 0.7
2015-Jul-01 00:00N 46°42' W 039°48'4 0.6
2015-Jun-30 17:00N 46°43' W 039°42'1 0.5
2015-Jun-30 16:00N 46°43' W 039°41'5 0.6
2015-Jun-30 08:00N 46°43' W 039°34'5 0.4
2015-Jun-29 20:00N 46°45' W 039°27'2 0.8
2015-Jun-29 18:00N 46°46' W 039°25'0 0.0
2015-Jun-29 17:00N 46°46' W 039°25'4 0.8
2015-Jun-29 12:00N 46°49' W 039°22'0 0.0
2015-Jun-29 11:00N 46°49' W 039°22'1 1.3
2015-Jun-29 10:00N 46°50' W 039°20'0 0.4
2015-Jun-29 09:00N 46°50' W 039°21'3 1.0
2015-Jun-29 06:00N 46°53' W 039°18'1 0.6
2015-Jun-29 04:00N 46°53' W 039°17'0 0.0
2015-Jun-29 03:00N 46°53' W 039°17'6 1.4
2015-Jun-28 23:00N 46°57' W 039°11'2 0.7
2015-Jun-28 20:00N 46°59' W 039°09'6 3.2
2015-Jun-28 18:00N 47°04' W 039°03'9 0.7
2015-Jun-28 06:00N 47°09' W 038°53'2 1.6
2015-Jun-28 05:00N 47°11' W 038°52'0 0.0
2015-Jun-28 04:00N 47°11' W 038°52'8 1.1
2015-Jun-27 21:00N 47°18' W 038°48'1 0.9
2015-Jun-27 20:00N 47°19' W 038°47'6 1.0
2015-Jun-27 14:00N 47°24' W 038°43'2 1.0
2015-Jun-27 12:00N 47°26' W 038°43'7 1.2
2015-Jun-27 06:00N 47°34' W 038°42'2 2.3
2015-Jun-27 05:00N 47°36' W 038°42'20 1.5
2015-Jun-26 16:00N 47°55' W 038°43'3 0.9
2015-Jun-26 12:00N 47°58' W 038°46'2 0.8
2015-Jun-26 09:00N 48°01' W 038°46'1 1.4
2015-Jun-26 08:00N 48°02' W 038°46'2 1.8
2015-Jun-26 07:00N 48°04' W 038°46'2 2.5
2015-Jun-26 06:00N 48°06' W 038°48'5 2.7
2015-Jun-26 04:00N 48°11' W 038°52'3 0.5
2015-Jun-25 23:00N 48°13' W 038°54'1 1.0
2015-Jun-25 22:00N 48°14' W 038°55'3 3.1
2015-Jun-25 21:00N 48°15' W 038°59'2 1.7
2015-Jun-25 20:00N 48°17' W 039°00'0 0.5
2015-Jun-25 19:00N 48°17' W 039°01'0 0.0
2015-Jun-25 18:00N 48°17' W 039°01'4 3.8
2015-Jun-25 17:00N 48°20' W 039°05'0 0.0
2015-Jun-25 16:00N 48°20' W 039°05'3 1.4
2015-Jun-25 14:00N 48°22' W 039°08'4 4.3
2015-Jun-25 13:00N 48°24' W 039°14'0 0.2
2015-Jun-25 12:00N 48°24' W 039°14'4 1.4
2015-Jun-25 09:00N 48°25' W 039°20'2 1.0
2015-Jun-25 07:00N 48°26' W 039°23'2 1.5
2015-Jun-25 06:00N 48°27' W 039°25'2 1.9
2015-Jun-25 05:00N 48°27' W 039°28'6 6.3
2015-Jun-25 04:00N 48°28' W 039°37'6 6.3
2015-Jun-25 03:00N 48°27' W 039°28'6 3.2
2015-Jun-25 01:00N 48°28' W 039°37'0 0.0
2015-Jun-25 00:00N 48°28' W 039°37'1 0.7
2015-Jun-24 23:00N 48°28' W 039°36'1 0.6
2015-Jun-24 22:00N 48°29' W 039°37'3 1.5
2015-Jun-24 20:00N 48°29' W 039°41'1 0.6
2015-Jun-24 19:00N 48°29' W 039°42'2 1.7
2015-Jun-24 18:00N 48°28' W 039°45'  

Dump ship's entire track history